Time;durP1;ratioP1;P1;durP2;ratioP2;P2;SDS_P1;SDS_P2;PMS_P1;PMS_P2;Temp;Humidity;BMP_temperature;BMP_pressure;BME280_temperature;BME280_humidity;BME280_pressure;Samples;Min_cycle;Max_cycle;Signal;HPM_P1;HPM_P2
2022/10/30 00:00:19;;;;;;;25.13;16.17;;;13.20;99.90;;;;;;5091516;28;20200;-68
2022/10/30 00:02:46;;;;;;;24.07;14.83;;;13.20;99.90;;;;;;5091634;28;20227;-67
2022/10/30 00:05:15;;;;;;;23.13;14.70;;;13.20;99.90;;;;;;5091618;28;20208;-68
2022/10/30 00:07:41;;;;;;;25.33;15.13;;;13.20;99.90;;;;;;5090844;28;20720;-68
2022/10/30 00:10:09;;;;;;;21.07;14.27;;;13.30;99.90;;;;;;5089104;28;20216;-68
2022/10/30 00:12:36;;;;;;;19.83;14.53;;;13.20;99.90;;;;;;5091371;28;20200;-69
2022/10/30 00:15:04;;;;;;;17.93;15.03;;;13.20;99.90;;;;;;5091413;28;20207;-67
2022/10/30 00:17:31;;;;;;;19.00;14.47;;;13.20;99.90;;;;;;5091418;28;20204;-67
2022/10/30 00:19:57;;;;;;;20.50;14.43;;;13.30;99.90;;;;;;5091301;28;20409;-68
2022/10/30 00:22:25;;;;;;;22.77;14.23;;;13.30;99.90;;;;;;5090574;28;20220;-68
2022/10/30 00:24:52;;;;;;;22.90;13.97;;;13.30;99.90;;;;;;5091157;28;20201;-68
2022/10/30 00:27:19;;;;;;;21.30;14.20;;;13.30;99.90;;;;;;5090131;28;20775;-67
2022/10/30 00:29:46;;;;;;;18.60;13.80;;;13.30;99.90;;;;;;5091095;28;20208;-68
2022/10/30 00:32:13;;;;;;;19.10;14.73;;;13.30;99.90;;;;;;5090911;28;20205;-68
2022/10/30 00:34:39;;;;;;;19.57;14.30;;;13.30;99.90;;;;;;5091164;28;20561;-67
2022/10/30 00:37:06;;;;;;;21.70;14.57;;;13.30;99.90;;;;;;5090574;28;20209;-67
2022/10/30 00:39:34;;;;;;;18.80;13.93;;;13.30;99.90;;;;;;5091136;28;20515;-67
2022/10/30 00:42:01;;;;;;;18.93;13.83;;;13.30;99.90;;;;;;5090870;28;20205;-67
2022/10/30 00:44:36;;;;;;;19.20;14.27;;;13.30;99.90;;;;;;5089676;28;20208;-67
2022/10/30 00:47:06;;;;;;;19.37;13.90;;;13.30;99.90;;;;;;5090875;28;20273;-67
2022/10/30 00:49:35;;;;;;;20.23;14.00;;;13.30;99.90;;;;;;5090699;28;20205;-67
2022/10/30 00:52:05;;;;;;;21.87;14.77;;;13.30;99.90;;;;;;5089901;28;20205;-67
2022/10/30 00:54:35;;;;;;;24.00;14.47;;;13.30;99.90;;;;;;5090776;28;20203;-67
2022/10/30 00:57:05;;;;;;;19.83;13.43;;;13.30;99.90;;;;;;5090751;28;20215;-68
2022/10/30 00:59:34;;;;;;;20.03;13.87;;;13.30;99.90;;;;;;5090959;28;20246;-66
2022/10/30 01:02:02;;;;;;;20.27;13.47;;;13.30;99.90;;;;;;5089617;28;20196;-67
2022/10/30 01:04:31;;;;;;;19.87;13.90;;;13.30;99.90;;;;;;5070513;28;20225;-67
2022/10/30 01:06:59;;;;;;;18.53;13.63;;;13.40;99.90;;;;;;5070120;28;20566;-68
2022/10/30 01:09:26;;;;;;;21.40;14.03;;;13.30;99.90;;;;;;5070478;28;20197;-68
2022/10/30 01:11:56;;;;;;;20.40;13.20;;;13.30;99.90;;;;;;5070549;28;20211;-68
2022/10/30 01:14:24;;;;;;;20.77;14.13;;;13.30;99.90;;;;;;5070611;28;20236;-68
2022/10/30 01:17:05;;;;;;;23.43;14.20;;;13.30;99.90;;;;;;5070622;28;20209;-67
2022/10/30 01:19:40;;;;;;;22.37;13.43;;;13.30;99.90;;;;;;5075621;28;20196;-67
2022/10/30 01:22:22;;;;;;;16.97;13.33;;;13.30;99.90;;;;;;5090939;28;20188;-68
2022/10/30 01:25:00;;;;;;;22.03;13.77;;;13.40;99.90;;;;;;5090864;28;20557;-67
2022/10/30 01:27:37;;;;;;;19.83;13.40;;;13.40;99.90;;;;;;5090704;28;20645;-68
2022/10/30 01:30:20;;;;;;;20.17;13.00;;;13.30;99.90;;;;;;5090035;28;20200;-68
2022/10/30 01:33:00;;;;;;;18.77;13.37;;;13.40;99.90;;;;;;5090989;28;20192;-67
2022/10/30 01:35:34;;;;;;;18.43;12.07;;;13.40;99.90;;;;;;5089809;28;20204;-68
2022/10/30 01:38:08;;;;;;;22.83;14.50;;;13.40;99.90;;;;;;5090830;28;20250;-68
2022/10/30 01:40:36;;;;;;;16.93;12.53;;;13.40;99.90;;;;;;5090802;28;20197;-67
2022/10/30 01:43:04;;;;;;;18.87;13.23;;;13.40;99.90;;;;;;5090518;28;20244;-67
2022/10/30 01:45:59;;;;;;;18.53;13.10;;;13.40;99.90;;;;;;5090621;28;20205;-68
2022/10/30 01:48:49;;;;;;;20.97;12.87;;;13.40;99.90;;;;;;5090678;28;20199;-67
2022/10/30 01:51:23;;;;;;;20.03;12.17;;;13.40;99.90;;;;;;5090727;28;20624;-68
2022/10/30 01:53:58;;;;;;;18.50;13.60;;;13.40;99.90;;;;;;5089993;28;20204;-67
2022/10/30 01:56:35;;;;;;;20.03;13.07;;;13.40;99.90;;;;;;5090785;28;20696;-67
2022/10/30 01:59:10;;;;;;;17.60;13.40;;;13.40;99.90;;;;;;5090291;28;20290;-68
2022/10/30 02:01:39;;;;;;;21.00;12.80;;;13.40;99.90;;;;;;5090539;28;20224;-67
2022/10/30 02:04:07;;;;;;;18.73;12.30;;;13.40;99.90;;;;;;5093156;28;20550;-67
2022/10/30 02:06:34;;;;;;;19.77;13.80;;;13.40;99.90;;;;;;5093492;28;20247;-66
2022/10/30 02:09:01;;;;;;;17.30;13.20;;;13.40;99.90;;;;;;5093097;28;20561;-67
2022/10/30 02:11:28;;;;;;;17.07;13.00;;;13.40;99.90;;;;;;5073737;28;20224;-68
2022/10/30 02:13:57;;;;;;;18.60;12.83;;;13.40;99.90;;;;;;5073357;28;20197;-68
2022/10/30 02:16:25;;;;;;;19.63;13.53;;;13.40;99.90;;;;;;5073600;28;20227;-68
2022/10/30 02:18:51;;;;;;;19.70;13.07;;;13.40;99.90;;;;;;5073610;28;20201;-67
2022/10/30 02:21:20;;;;;;;22.40;14.13;;;13.40;99.90;;;;;;5073472;28;20285;-67
2022/10/30 02:23:47;;;;;;;20.23;13.33;;;13.40;99.90;;;;;;5073519;28;20262;-69
2022/10/30 02:26:13;;;;;;;19.70;14.20;;;13.40;99.90;;;;;;5073194;28;20619;-66
2022/10/30 02:28:40;;;;;;;21.00;13.30;;;13.40;99.90;;;;;;5088016;28;20257;-67
2022/10/30 02:31:07;;;;;;;22.83;13.50;;;13.40;99.90;;;;;;5093376;28;20649;-68
2022/10/30 02:33:33;;;;;;;22.80;14.33;;;13.40;99.90;;;;;;5093710;28;20645;-67
2022/10/30 02:36:00;;;;;;;20.73;14.00;;;13.40;99.90;;;;;;5093496;28;20212;-67
2022/10/30 02:38:28;;;;;;;20.63;14.87;;;13.40;99.90;;;;;;5093594;28;20208;-67
2022/10/30 02:40:57;;;;;;;20.60;13.77;;;13.40;99.90;;;;;;5093434;28;20223;-68
2022/10/30 02:43:24;;;;;;;18.60;13.33;;;13.40;99.90;;;;;;5093331;28;20225;-67
2022/10/30 02:45:51;;;;;;;16.77;13.50;;;13.40;99.90;;;;;;5092168;28;20213;-68
2022/10/30 02:48:18;;;;;;;21.07;14.27;;;13.40;99.90;;;;;;5093323;28;20232;-69
2022/10/30 02:50:44;;;;;;;24.73;15.23;;;13.40;99.90;;;;;;5093587;28;20653;-67
2022/10/30 02:53:11;;;;;;;18.90;14.43;;;13.40;99.90;;;;;;5093456;28;20197;-67
2022/10/30 02:55:39;;;;;;;20.47;14.43;;;13.40;99.90;;;;;;5092791;28;20201;-67
2022/10/30 02:58:06;;;;;;;21.27;13.93;;;13.40;99.90;;;;;;5092735;28;20204;-67
2022/10/30 03:00:33;;;;;;;26.97;14.63;;;13.40;99.90;;;;;;5093027;28;20200;-67
2022/10/30 03:02:59;;;;;;;18.33;13.70;;;13.50;99.90;;;;;;5091772;28;20216;-67
2022/10/30 03:05:26;;;;;;;19.80;13.97;;;13.50;99.90;;;;;;5093035;28;20207;-68
2022/10/30 03:07:54;;;;;;;19.23;14.80;;;13.50;99.90;;;;;;5092612;28;20723;-68
2022/10/30 03:10:21;;;;;;;19.00;14.33;;;13.50;99.90;;;;;;5092320;28;20201;-68
2022/10/30 03:12:49;;;;;;;21.97;15.20;;;13.50;99.90;;;;;;5092923;28;20205;-67
2022/10/30 03:15:15;;;;;;;18.80;14.70;;;13.50;99.90;;;;;;5091754;28;20200;-68
2022/10/30 03:17:42;;;;;;;17.83;14.43;;;13.40;99.90;;;;;;5091666;28;20638;-67
2022/10/30 03:20:10;;;;;;;18.97;14.40;;;13.50;99.90;;;;;;5092935;28;20201;-67
2022/10/30 03:22:37;;;;;;;23.53;14.83;;;13.50;99.90;;;;;;5092527;28;20594;-68
2022/10/30 03:25:04;;;;;;;19.67;14.17;;;13.40;99.90;;;;;;5092532;28;20228;-67
2022/10/30 03:27:31;;;;;;;20.50;14.47;;;13.40;99.90;;;;;;5092357;28;20569;-67
2022/10/30 03:29:59;;;;;;;20.03;14.93;;;13.40;99.90;;;;;;5091924;28;20205;-67
2022/10/30 03:32:26;;;;;;;20.00;14.77;;;13.40;99.90;;;;;;5092302;28;20208;-67
2022/10/30 03:34:53;;;;;;;18.10;14.47;;;13.40;99.90;;;;;;5090829;28;20204;-68
2022/10/30 03:37:19;;;;;;;20.83;15.13;;;13.40;99.90;;;;;;5092358;28;20211;-69
2022/10/30 03:39:46;;;;;;;24.00;14.47;;;13.40;99.90;;;;;;5092523;28;20562;-67
2022/10/30 03:42:13;;;;;;;22.43;15.77;;;13.40;99.90;;;;;;5092395;28;20683;-67
2022/10/30 03:44:40;;;;;;;20.13;14.60;;;13.40;99.90;;;;;;5092098;28;20220;-68
2022/10/30 03:47:08;;;;;;;21.23;15.40;;;13.30;99.90;;;;;;5091819;28;20204;-67
2022/10/30 03:49:34;;;;;;;21.20;14.50;;;13.30;99.90;;;;;;5092064;28;20216;-67
2022/10/30 03:52:01;;;;;;;23.70;15.23;;;13.30;99.90;;;;;;5091024;28;20216;-69
2022/10/30 03:54:28;;;;;;;17.53;13.77;;;13.30;99.90;;;;;;5091774;28;20200;-67
2022/10/30 03:56:54;;;;;;;24.23;15.80;;;13.30;99.90;;;;;;5092365;28;20197;-67
2022/10/30 03:59:21;;;;;;;18.03;14.63;;;13.30;99.90;;;;;;5092118;28;20714;-68
2022/10/30 04:01:48;;;;;;;20.67;15.43;;;13.30;99.90;;;;;;5091914;28;20215;-67
2022/10/30 04:04:16;;;;;;;19.80;14.80;;;13.30;99.90;;;;;;5091798;28;20216;-67
2022/10/30 04:06:43;;;;;;;18.33;13.87;;;13.30;99.90;;;;;;5091629;28;20721;-67
2022/10/30 04:09:10;;;;;;;21.13;14.40;;;13.30;99.90;;;;;;5090906;28;20649;-68
2022/10/30 04:11:36;;;;;;;19.70;14.80;;;13.30;99.90;;;;;;5091790;28;20677;-67
2022/10/30 04:14:03;;;;;;;22.87;15.17;;;13.30;99.90;;;;;;5091460;28;20204;-67
2022/10/30 04:16:30;;;;;;;19.93;14.57;;;13.30;99.90;;;;;;5091946;28;20227;-67
2022/10/30 04:18:56;;;;;;;19.23;14.60;;;13.30;99.90;;;;;;5093140;28;20657;-68
2022/10/30 04:21:24;;;;;;;18.73;14.60;;;13.30;99.90;;;;;;5092833;28;20208;-67
2022/10/30 04:23:52;;;;;;;20.40;14.00;;;13.30;99.90;;;;;;5091792;28;20239;-67
2022/10/30 04:26:19;;;;;;;18.93;14.13;;;13.20;99.90;;;;;;5092855;28;20211;-67
2022/10/30 04:28:47;;;;;;;17.93;13.87;;;13.30;99.90;;;;;;5092584;28;20205;-67
2022/10/30 04:31:14;;;;;;;18.20;13.87;;;13.30;99.90;;;;;;5092702;28;20645;-67
2022/10/30 04:33:41;;;;;;;18.90;13.90;;;13.30;99.90;;;;;;5092371;28;20192;-67
2022/10/30 04:36:08;;;;;;;21.63;13.47;;;13.20;99.90;;;;;;5092424;28;20273;-68
2022/10/30 04:38:36;;;;;;;20.83;13.30;;;13.30;99.90;;;;;;5092603;28;20201;-67
2022/10/30 04:41:03;;;;;;;19.53;13.40;;;13.30;99.90;;;;;;5091159;28;20205;-67
2022/10/30 04:43:30;;;;;;;18.70;14.13;;;13.30;99.90;;;;;;5091715;28;20200;-68
2022/10/30 04:45:56;;;;;;;16.50;13.23;;;13.30;99.90;;;;;;5090966;28;20226;-66
2022/10/30 04:48:23;;;;;;;19.73;13.07;;;13.30;99.90;;;;;;5091141;28;20361;-68
2022/10/30 04:50:50;;;;;;;21.53;13.97;;;13.30;99.90;;;;;;5091191;28;20206;-67
2022/10/30 04:53:18;;;;;;;17.80;13.50;;;13.30;99.90;;;;;;5091061;28;20651;-67
2022/10/30 04:55:46;;;;;;;17.93;13.30;;;13.30;99.90;;;;;;5090799;28;20196;-67
2022/10/30 04:58:13;;;;;;;19.27;13.53;;;13.30;99.90;;;;;;5091224;28;20665;-67
2022/10/30 05:00:41;;;;;;;19.00;13.67;;;13.30;99.90;;;;;;5090226;28;20770;-68
2022/10/30 05:03:10;;;;;;;18.83;12.80;;;13.30;99.90;;;;;;5090936;28;20198;-67
2022/10/30 05:05:36;;;;;;;18.97;13.33;;;13.30;99.90;;;;;;5091070;28;20769;-67
2022/10/30 05:08:03;;;;;;;17.07;13.80;;;13.30;99.90;;;;;;5090389;28;20243;-67
2022/10/30 05:10:30;;;;;;;19.43;13.13;;;13.30;99.90;;;;;;5090666;28;20207;-67
2022/10/30 05:12:58;;;;;;;21.43;14.47;;;13.30;99.90;;;;;;5090596;28;20568;-67
2022/10/30 05:15:25;;;;;;;21.03;14.77;;;13.30;99.90;;;;;;5089493;28;20207;-68
2022/10/30 05:17:52;;;;;;;22.03;14.23;;;13.30;99.90;;;;;;5090779;28;20204;-67
2022/10/30 05:20:19;;;;;;;22.57;13.70;;;13.20;99.90;;;;;;5090774;28;20201;-67
2022/10/30 05:22:46;;;;;;;19.50;13.87;;;13.30;99.90;;;;;;5090352;28;20223;-68
2022/10/30 05:25:14;;;;;;;21.40;14.60;;;13.30;99.90;;;;;;5090642;28;20240;-67
2022/10/30 05:27:41;;;;;;;21.03;14.63;;;13.30;99.90;;;;;;5090809;28;20320;-66
2022/10/30 05:30:10;;;;;;;20.83;14.67;;;13.30;99.90;;;;;;5090545;28;20584;-67
2022/10/30 05:32:37;;;;;;;19.07;14.80;;;13.30;99.90;;;;;;5089337;28;20201;-68
2022/10/30 05:35:04;;;;;;;23.17;14.43;;;13.30;99.90;;;;;;5090513;28;20204;-68
2022/10/30 05:37:31;;;;;;;19.33;14.03;;;13.30;99.90;;;;;;5091396;28;20664;-67
2022/10/30 05:39:57;;;;;;;23.97;14.87;;;13.30;99.90;;;;;;5095273;28;20204;-67
2022/10/30 05:42:24;;;;;;;21.60;14.23;;;13.30;99.90;;;;;;5094716;28;20720;-67
2022/10/30 05:44:51;;;;;;;21.57;14.50;;;13.30;99.90;;;;;;5094343;28;20220;-67
2022/10/30 05:47:19;;;;;;;20.70;13.90;;;13.30;99.90;;;;;;5094208;28;20203;-68
2022/10/30 05:49:45;;;;;;;22.13;14.67;;;13.30;99.90;;;;;;5093309;28;20208;-66
2022/10/30 05:52:12;;;;;;;19.63;14.43;;;13.30;99.90;;;;;;5094614;28;20775;-67
2022/10/30 05:54:39;;;;;;;26.33;14.27;;;13.40;99.90;;;;;;5094351;28;20197;-67
2022/10/30 05:57:06;;;;;;;18.73;13.80;;;13.30;99.90;;;;;;5093380;28;20576;-67
2022/10/30 05:59:32;;;;;;;16.30;14.03;;;13.30;99.90;;;;;;5094059;28;20205;-67
2022/10/30 06:01:59;;;;;;;21.83;13.87;;;13.30;99.90;;;;;;5094172;28;20208;-67
2022/10/30 06:04:27;;;;;;;17.47;13.40;;;13.30;99.90;;;;;;5094497;28;20567;-68
2022/10/30 06:06:54;;;;;;;20.27;13.70;;;13.30;99.90;;;;;;5094212;28;20535;-67
2022/10/30 06:09:20;;;;;;;16.87;13.80;;;13.30;99.90;;;;;;5093998;28;20204;-68
2022/10/30 06:11:47;;;;;;;17.23;13.30;;;13.40;99.90;;;;;;5092665;28;20207;-67
2022/10/30 06:14:14;;;;;;;21.00;12.43;;;13.40;99.90;;;;;;5093443;28;20208;-67
2022/10/30 06:16:40;;;;;;;13.40;11.97;;;13.40;99.90;;;;;;5093774;28;20220;-67
2022/10/30 06:19:07;;;;;;;20.90;12.77;;;13.30;99.90;;;;;;5093533;28;20204;-67
2022/10/30 06:21:35;;;;;;;17.60;12.13;;;13.40;99.90;;;;;;5093836;28;20204;-67
2022/10/30 06:24:02;;;;;;;18.63;11.17;;;13.40;99.90;;;;;;5093872;28;20220;-67
2022/10/30 06:26:29;;;;;;;16.93;11.53;;;13.40;99.90;;;;;;5094097;28;20676;-68
2022/10/30 06:28:56;;;;;;;17.37;11.40;;;13.40;99.90;;;;;;5091737;28;20201;-67
2022/10/30 06:31:22;;;;;;;15.17;11.30;;;13.50;99.90;;;;;;5093551;28;20532;-68
2022/10/30 06:33:49;;;;;;;18.40;11.70;;;13.50;99.90;;;;;;5092330;28;20212;-67
2022/10/30 06:36:17;;;;;;;19.63;11.87;;;13.50;99.90;;;;;;5093421;28;20204;-68
2022/10/30 06:38:45;;;;;;;16.63;12.43;;;13.60;99.90;;;;;;5093680;28;20734;-67
2022/10/30 06:41:11;;;;;;;16.90;11.63;;;13.60;99.90;;;;;;5092361;28;20231;-67
2022/10/30 06:43:38;;;;;;;17.53;12.07;;;13.70;99.90;;;;;;5091884;28;20677;-68
2022/10/30 06:46:05;;;;;;;19.07;12.13;;;13.70;99.90;;;;;;5092628;28;20232;-67
2022/10/30 06:48:32;;;;;;;16.87;12.43;;;13.70;99.90;;;;;;5092941;28;20230;-67
2022/10/30 06:51:01;;;;;;;18.33;11.83;;;13.80;99.90;;;;;;5092906;28;20200;-67
2022/10/30 06:53:28;;;;;;;20.30;12.90;;;13.80;99.90;;;;;;5093430;28;20212;-67
2022/10/30 06:55:57;;;;;;;15.37;11.67;;;13.90;99.90;;;;;;5093103;28;20215;-67
2022/10/30 06:58:24;;;;;;;18.83;13.30;;;13.80;99.90;;;;;;5092103;28;20209;-68
2022/10/30 07:00:51;;;;;;;17.57;11.60;;;13.90;99.90;;;;;;5093192;28;20212;-69
2022/10/30 07:03:18;;;;;;;18.20;12.07;;;13.90;99.90;;;;;;5093174;28;20719;-68
2022/10/30 07:05:45;;;;;;;19.07;12.57;;;13.90;99.90;;;;;;5092813;28;20232;-68
2022/10/30 07:08:11;;;;;;;18.13;12.03;;;13.90;99.90;;;;;;5092472;28;20236;-67
2022/10/30 07:10:38;;;;;;;18.03;11.57;;;14.00;99.90;;;;;;5092952;28;20201;-69
2022/10/30 07:13:06;;;;;;;17.07;11.87;;;14.00;99.90;;;;;;5091808;28;20216;-67
2022/10/30 07:15:33;;;;;;;20.40;13.00;;;14.00;99.90;;;;;;5092735;28;20196;-67
2022/10/30 07:18:02;;;;;;;14.90;12.10;;;14.10;99.90;;;;;;5092786;28;20562;-67
2022/10/30 07:20:31;;;;;;;14.93;12.00;;;14.10;99.90;;;;;;5092621;28;20226;-68
2022/10/30 07:22:58;;;;;;;21.33;12.20;;;14.10;99.90;;;;;;5092099;28;20232;-69
2022/10/30 07:25:24;;;;;;;24.60;13.00;;;14.20;99.90;;;;;;5092563;28;20422;-69
2022/10/30 07:27:52;;;;;;;18.47;12.60;;;14.30;99.90;;;;;;5092200;28;20211;-68
2022/10/30 07:30:22;;;;;;;18.80;12.63;;;14.30;99.90;;;;;;5091268;28;20338;-68
2022/10/30 07:32:57;;;;;;;20.17;12.20;;;14.00;99.90;;;;;;5092441;28;20212;-67
2022/10/30 07:35:24;;;;;;;18.10;11.67;;;14.30;99.90;;;;;;5092275;28;20613;-68
2022/10/30 07:37:50;;;;;;;19.17;12.63;;;14.20;99.90;;;;;;5092759;28;20196;-68
2022/10/30 07:40:18;;;;;;;15.67;12.37;;;14.30;99.90;;;;;;5091853;28;20196;-68
2022/10/30 07:42:45;;;;;;;15.93;12.37;;;14.40;99.90;;;;;;5091927;28;20216;-67
2022/10/30 07:45:11;;;;;;;16.97;11.93;;;14.40;99.90;;;;;;5090944;28;20225;-66
2022/10/30 07:47:40;;;;;;;15.30;11.80;;;14.50;99.90;;;;;;5092056;28;20577;-68
2022/10/30 07:50:08;;;;;;;16.63;11.77;;;14.60;99.90;;;;;;5091833;28;20207;-68
2022/10/30 07:52:35;;;;;;;18.47;11.30;;;14.70;99.90;;;;;;5090822;28;20209;-68
2022/10/30 07:55:02;;;;;;;17.80;11.93;;;14.70;99.90;;;;;;5092226;28;20201;-69
2022/10/30 07:57:31;;;;;;;19.73;12.60;;;14.80;99.90;;;;;;5092146;28;20680;-68
2022/10/30 07:59:58;;;;;;;16.50;11.47;;;14.80;99.90;;;;;;5091755;28;20277;-68
2022/10/30 08:02:25;;;;;;;14.50;11.27;;;14.80;99.90;;;;;;5091398;28;20208;-69
2022/10/30 08:04:53;;;;;;;20.97;12.53;;;14.80;99.90;;;;;;5092467;28;20228;-67
2022/10/30 08:07:20;;;;;;;17.53;12.03;;;14.80;99.90;;;;;;5091667;28;20760;-68
2022/10/30 08:09:46;;;;;;;18.33;11.73;;;14.80;99.90;;;;;;5091479;28;20614;-68
2022/10/30 08:12:13;;;;;;;15.53;11.53;;;14.80;99.90;;;;;;5092060;28;20204;-67
2022/10/30 08:14:40;;;;;;;15.63;11.47;;;14.80;99.90;;;;;;5091209;28;20569;-68
2022/10/30 08:17:09;;;;;;;16.83;12.80;;;14.90;99.90;;;;;;5091342;28;20200;-68
2022/10/30 08:19:36;;;;;;;20.37;12.63;;;14.90;99.90;;;;;;5091371;28;20200;-68
2022/10/30 08:22:04;;;;;;;17.27;12.13;;;14.90;99.90;;;;;;5091763;28;20654;-68
2022/10/30 08:24:31;;;;;;;14.97;11.67;;;14.90;99.90;;;;;;5090951;28;20215;-68
2022/10/30 08:26:58;;;;;;;21.13;12.40;;;14.90;99.90;;;;;;5091563;28;20207;-67
2022/10/30 08:29:24;;;;;;;14.40;11.33;;;15.00;99.90;;;;;;5091521;28;20287;-68
2022/10/30 08:31:51;;;;;;;16.87;11.80;;;15.10;99.90;;;;;;5091521;28;20672;-68
2022/10/30 08:34:18;;;;;;;18.70;12.23;;;15.20;99.90;;;;;;5090818;28;20201;-67
2022/10/30 08:36:45;;;;;;;17.37;11.87;;;15.20;99.90;;;;;;5091335;28;20204;-68
2022/10/30 08:39:13;;;;;;;16.67;12.03;;;15.30;99.90;;;;;;5090306;28;20561;-68
2022/10/30 08:41:39;;;;;;;19.47;11.87;;;15.30;99.90;;;;;;5090956;28;20522;-68
2022/10/30 08:44:06;;;;;;;20.80;12.80;;;15.40;99.90;;;;;;5091007;28;20231;-68
2022/10/30 08:46:33;;;;;;;18.33;12.33;;;15.50;99.90;;;;;;5090649;28;20282;-68
2022/10/30 08:49:00;;;;;;;15.30;10.80;;;15.60;99.90;;;;;;5091076;28;20207;-69
2022/10/30 08:51:26;;;;;;;18.70;12.03;;;15.70;99.90;;;;;;5091172;28;20291;-68
2022/10/30 08:53:53;;;;;;;17.70;11.67;;;15.80;99.90;;;;;;5090801;28;20666;-68
2022/10/30 08:56:21;;;;;;;17.53;11.83;;;15.80;99.90;;;;;;5089700;28;20200;-68
2022/10/30 08:58:48;;;;;;;16.70;11.83;;;15.80;99.90;;;;;;5090950;28;20205;-68
2022/10/30 09:01:14;;;;;;;15.43;10.77;;;15.80;99.90;;;;;;5090705;28;20196;-68
2022/10/30 09:03:43;;;;;;;14.67;11.50;;;15.80;99.90;;;;;;5090841;28;20561;-67
2022/10/30 09:06:09;;;;;;;15.80;11.60;;;15.80;99.90;;;;;;5090441;28;20773;-68
2022/10/30 09:08:36;;;;;;;21.00;14.20;;;15.80;99.90;;;;;;5090769;28;20212;-68
2022/10/30 09:11:03;;;;;;;16.00;11.80;;;15.80;99.90;;;;;;5091337;28;20200;-69
2022/10/30 09:13:31;;;;;;;16.50;11.70;;;15.80;99.90;;;;;;5091854;28;20204;-68
2022/10/30 09:16:00;;;;;;;18.27;13.43;;;15.80;99.90;;;;;;5094976;28;20197;-68
2022/10/30 09:18:27;;;;;;;15.43;12.38;;;15.70;99.90;;;;;;5094821;28;20249;-68
2022/10/30 09:20:54;;;;;;;15.80;10.90;;;15.70;99.90;;;;;;5094970;28;20201;-68
2022/10/30 09:23:20;;;;;;;16.00;10.43;;;15.70;99.90;;;;;;5094785;28;20254;-68
2022/10/30 09:25:47;;;;;;;14.07;11.30;;;15.60;99.90;;;;;;5094736;28;20228;-68
2022/10/30 09:28:14;;;;;;;17.47;12.10;;;15.60;99.90;;;;;;5095085;28;20204;-69
2022/10/30 09:30:42;;;;;;;18.30;11.50;;;15.50;99.90;;;;;;5093644;28;20504;-68
2022/10/30 09:33:09;;;;;;;15.57;11.20;;;15.50;99.90;;;;;;5094826;28;20208;-67
2022/10/30 09:35:36;;;;;;;20.63;13.67;;;15.40;99.90;;;;;;5094545;28;20291;-67
2022/10/30 09:38:03;;;;;;;14.70;10.27;;;15.40;99.90;;;;;;5094818;28;20208;-68
2022/10/30 09:40:41;;;;;;;20.53;11.80;;;15.40;99.90;;;;;;5094410;28;20204;-68
2022/10/30 09:43:21;;;;;;;15.50;10.73;;;15.50;99.90;;;;;;5094805;28;20495;-68
2022/10/30 09:46:22;;;;;;;14.50;9.90;;;15.40;99.90;;;;;;5093200;28;20298;-69
2022/10/30 09:49:17;;;;;;;16.77;10.60;;;15.50;99.90;;;;;;5094601;28;20188;-68
2022/10/30 09:51:59;;;;;;;13.70;9.90;;;15.50;99.90;;;;;;5093098;28;20200;-68
2022/10/30 09:54:35;;;;;;;14.33;10.27;;;15.70;99.90;;;;;;5093967;28;20188;-69
2022/10/30 09:57:06;;;;;;;17.93;9.90;;;16.00;99.90;;;;;;5094388;28;20210;-68
2022/10/30 09:59:44;;;;;;;15.40;11.17;;;16.20;99.90;;;;;;5094140;28;20189;-68
2022/10/30 10:02:27;;;;;;;14.30;10.27;;;16.30;99.90;;;;;;5093476;28;20196;-68
2022/10/30 10:04:58;;;;;;;13.23;9.73;;;16.40;99.90;;;;;;5094561;28;20185;-67
2022/10/30 10:07:30;;;;;;;17.13;10.70;;;16.60;99.90;;;;;;5093009;28;20239;-67
2022/10/30 10:10:01;;;;;;;13.50;9.93;;;17.10;99.90;;;;;;5093200;28;20627;-68
2022/10/30 10:12:33;;;;;;;15.55;10.27;;;17.70;99.90;;;;;;5092775;28;20189;-67
2022/10/30 10:15:04;;;;;;;9.85;8.23;;;18.10;99.90;;;;;;5093255;28;20193;-68
2022/10/30 10:17:37;;;;;;;11.07;8.15;;;18.80;99.90;;;;;;5091577;28;20201;-67
2022/10/30 10:20:06;;;;;;;13.25;8.25;;;19.50;99.90;;;;;;5092788;28;20206;-68
2022/10/30 10:22:38;;;;;;;11.43;7.47;;;19.70;99.90;;;;;;5092834;28;20224;-68
2022/10/30 10:25:11;;;;;;;10.77;7.78;;;19.60;99.90;;;;;;5092346;28;20196;-68
2022/10/30 10:27:52;;;;;;;12.73;7.75;;;19.30;99.90;;;;;;5092886;28;20626;-67
2022/10/30 10:30:21;;;;;;;9.82;6.95;;;19.00;99.90;;;;;;5092891;28;20221;-67
2022/10/30 10:33:06;;;;;;;8.80;6.93;;;19.20;99.90;;;;;;5092268;28;20453;-68
2022/10/30 10:35:54;;;;;;;11.93;7.22;;;19.70;99.90;;;;;;5091362;28;20253;-69
2022/10/30 10:38:33;;;;;;;11.85;6.80;;;20.20;99.90;;;;;;5092444;28;20572;-68
2022/10/30 10:41:07;;;;;;;8.82;6.82;;;20.60;99.90;;;;;;5093166;28;20704;-68
2022/10/30 10:43:43;;;;;;;13.20;7.72;;;20.40;99.90;;;;;;5092534;28;20196;-68
2022/10/30 10:46:26;;;;;;;9.50;6.82;;;20.10;99.90;;;;;;5092379;28;20213;-68
2022/10/30 10:49:10;;;;;;;10.88;7.20;;;19.70;99.90;;;;;;5092212;28;20193;-67
2022/10/30 10:51:40;;;;;;;8.98;7.43;;;19.40;99.90;;;;;;5091155;28;20544;-68
2022/10/30 10:54:12;;;;;;;10.63;7.25;;;19.00;99.90;;;;;;5091755;28;20204;-67
2022/10/30 10:56:43;;;;;;;11.00;6.72;;;18.60;99.90;;;;;;5092201;28;20189;-68
2022/10/30 10:59:17;;;;;;;11.50;6.85;;;18.40;99.90;;;;;;5092269;28;20645;-69
2022/10/30 11:01:51;;;;;;;14.23;6.85;;;18.20;99.90;;;;;;5091874;28;20188;-68
2022/10/30 11:04:30;;;;;;;8.85;6.95;;;18.00;99.90;;;;;;5091913;28;20193;-68
2022/10/30 11:06:58;;;;;;;12.35;6.97;;;18.40;99.90;;;;;;5055436;28;1043418;-68
2022/10/30 11:09:27;;;;;;;9.55;5.68;;;18.90;99.90;;;;;;5091670;28;20208;-68
2022/10/30 11:11:55;;;;;;;7.55;5.75;;;19.70;99.90;;;;;;5093035;28;20229;-68
2022/10/30 11:14:24;;;;;;;6.85;4.70;;;21.00;99.90;;;;;;5092687;28;20196;-68
2022/10/30 11:17:01;;;;;;;5.47;4.40;;;22.50;99.90;;;;;;5092517;28;20200;-68
2022/10/30 11:19:31;;;;;;;7.20;3.85;;;24.30;99.90;;;;;;5092084;28;20196;-68
2022/10/30 11:21:58;;;;;;;4.53;3.05;;;26.90;98.20;;;;;;5092441;28;20192;-68
2022/10/30 11:24:30;;;;;;;6.60;2.97;;;29.60;81.00;;;;;;5091726;28;20529;-68
2022/10/30 11:26:58;;;;;;;4.38;3.25;;;32.00;63.50;;;;;;5092660;28;20233;-69
2022/10/30 11:29:28;;;;;;;3.83;3.03;;;34.10;55.10;;;;;;5092009;28;20204;-67
2022/10/30 11:32:03;;;;;;;3.33;2.40;;;36.10;49.40;;;;;;5092314;28;20263;-68
2022/10/30 11:34:34;;;;;;;3.85;2.45;;;38.30;43.90;;;;;;5091772;28;20219;-68
2022/10/30 11:37:01;;;;;;;4.13;2.08;;;39.90;39.10;;;;;;5091788;28;20196;-68
2022/10/30 11:39:29;;;;;;;3.47;1.67;;;40.70;36.50;;;;;;5091227;28;20641;-68
2022/10/30 11:42:01;;;;;;;2.80;1.75;;;40.10;35.10;;;;;;5092294;28;20192;-68
2022/10/30 11:44:31;;;;;;;2.50;1.88;;;38.50;35.20;;;;;;5092130;28;20286;-68
2022/10/30 11:46:58;;;;;;;3.15;1.80;;;36.50;36.40;;;;;;5091852;28;20611;-68
2022/10/30 11:49:37;;;;;;;4.43;1.92;;;34.30;38.50;;;;;;5091948;28;20215;-67
2022/10/30 11:52:05;;;;;;;3.08;1.80;;;32.30;40.40;;;;;;5092517;28;20184;-67
2022/10/30 11:54:37;;;;;;;2.88;1.40;;;30.80;42.40;;;;;;5091932;28;20208;-68
2022/10/30 11:57:04;;;;;;;3.03;1.95;;;29.40;44.20;;;;;;5090891;28;20209;-67
2022/10/30 11:59:31;;;;;;;1.67;1.48;;;28.20;45.40;;;;;;5092393;28;20210;-68
2022/10/30 12:02:00;;;;;;;2.60;1.63;;;27.20;47.00;;;;;;5091480;28;20201;-67
2022/10/30 12:04:31;;;;;;;2.90;1.98;;;26.40;48.50;;;;;;5091938;28;20208;-67
2022/10/30 12:07:16;;;;;;;2.38;1.77;;;25.60;50.00;;;;;;5091532;28;20723;-68
2022/10/30 12:09:45;;;;;;;2.05;1.80;;;24.90;52.10;;;;;;5091321;28;20184;-67
2022/10/30 12:12:18;;;;;;;2.65;2.13;;;24.40;53.00;;;;;;5091480;28;20505;-67
2022/10/30 12:14:44;;;;;;;5.32;2.55;;;24.10;54.00;;;;;;5089964;28;20208;-67
2022/10/30 12:17:15;;;;;;;2.78;2.40;;;23.60;54.70;;;;;;5090724;28;20657;-68
2022/10/30 12:19:46;;;;;;;3.85;2.65;;;23.20;55.40;;;;;;5091876;28;20199;-67
2022/10/30 12:22:25;;;;;;;5.35;2.60;;;22.80;56.20;;;;;;5091488;28;20247;-68
2022/10/30 12:24:52;;;;;;;3.70;3.30;;;22.50;57.30;;;;;;5091840;28;20184;-68
2022/10/30 12:27:19;;;;;;;4.03;2.60;;;22.30;58.20;;;;;;5091644;28;20239;-67
2022/10/30 12:29:59;;;;;;;5.05;2.90;;;22.00;58.70;;;;;;5091856;28;20208;-69
2022/10/30 12:32:33;;;;;;;3.00;2.80;;;21.90;59.70;;;;;;5091880;28;20196;-68
2022/10/30 12:35:03;;;;;;;4.18;3.30;;;21.70;59.20;;;;;;5090518;28;20263;-68
2022/10/30 12:37:37;;;;;;;4.32;3.30;;;21.50;59.70;;;;;;5091363;28;20185;-68
2022/10/30 12:40:08;;;;;;;3.58;3.28;;;21.40;60.20;;;;;;5091612;28;20199;-68